createdAt,value
2019-05-18T00:00:11.873Z,96479.75
2019-05-18T00:02:41.913Z,96479.25
2019-05-18T00:05:11.719Z,96479.25
2019-05-18T00:07:41.484Z,96482.30
2019-05-18T00:10:11.284Z,96480.64
2019-05-18T00:12:41.752Z,96482.96
2019-05-18T00:15:14.038Z,96482.96
2019-05-18T00:17:43.866Z,96483.45
2019-05-18T00:20:13.705Z,96481.63
2019-05-18T00:22:43.370Z,96481.63
2019-05-18T00:25:12.997Z,96483.95
2019-05-18T00:27:42.852Z,96471.52
2019-05-18T00:30:12.739Z,96469.19
2019-05-18T00:32:42.663Z,96471.72
2019-05-18T00:35:12.910Z,96463.48
2019-05-18T00:37:42.819Z,96476.20
2019-05-18T00:40:13.779Z,96483.56
2019-05-18T00:42:44.049Z,96483.56
2019-05-18T00:45:13.854Z,96473.52
2019-05-18T00:47:43.509Z,96473.52
2019-05-18T00:50:13.431Z,96475.55
2019-05-18T00:52:43.209Z,96475.58
2019-05-18T00:55:14.957Z,96468.08
2019-05-18T00:57:45.010Z,96469.08
2019-05-18T01:00:14.983Z,96474.13
2019-05-18T01:02:45.051Z,96469.27
2019-05-18T01:05:15.462Z,96467.62
2019-05-18T01:07:45.294Z,96467.62
2019-05-18T01:10:15.612Z,96458.13
2019-05-18T01:12:45.441Z,96454.09
2019-05-18T01:15:15.296Z,96454.09
2019-05-18T01:17:56.826Z,96457.63
2019-05-18T01:20:17.112Z,96457.63
2019-05-18T01:22:47.223Z,96448.73
2019-05-18T01:25:17.095Z,96456.63
2019-05-18T01:27:47.138Z,96456.63
2019-05-18T01:30:16.859Z,96457.11
2019-05-18T01:32:47.716Z,96456.62
2019-05-18T01:35:17.905Z,96458.64
2019-05-18T01:37:48.101Z,96452.59
2019-05-18T01:40:18.352Z,96449.27
2019-05-18T01:42:48.396Z,96442.20
2019-05-18T01:45:18.180Z,96442.20
2019-05-18T01:47:48.503Z,96441.02
2019-05-18T01:50:18.323Z,96441.02
2019-05-18T01:52:48.046Z,96443.88
2019-05-18T01:55:17.673Z,96441.98
2019-05-18T01:57:48.662Z,96437.82
2019-05-18T02:00:19.248Z,96437.82
2019-05-18T02:02:49.115Z,96440.98
2019-05-18T02:05:18.901Z,96439.95
2019-05-18T02:07:48.802Z,96437.12
2019-05-18T02:10:18.614Z,96435.41
2019-05-18T02:12:48.546Z,96435.41
2019-05-18T02:15:18.751Z,96444.45
2019-05-18T02:17:48.682Z,96441.09
2019-05-18T02:20:20.279Z,96441.09
2019-05-18T02:22:50.153Z,96443.09
2019-05-18T02:25:19.788Z,96447.22
2019-05-18T02:27:49.925Z,96444.22
2019-05-18T02:30:19.688Z,96441.70
2019-05-18T02:32:49.448Z,96444.38
2019-05-18T02:35:19.392Z,96441.36
2019-05-18T02:37:49.119Z,96443.52
2019-05-18T02:40:19.030Z,96446.70
2019-05-18T02:42:49.003Z,96443.02
2019-05-18T02:45:18.885Z,96443.02
2019-05-18T02:47:50.311Z,96446.66
2019-05-18T02:50:20.080Z,96444.70
2019-05-18T02:52:50.187Z,96444.70
2019-05-18T02:55:19.916Z,96436.63
2019-05-18T02:58:02.294Z,96435.11
2019-05-18T03:00:32.166Z,96442.30
2019-05-18T03:03:02.039Z,96442.30
2019-05-18T03:05:31.942Z,96436.30
2019-05-18T03:08:02.192Z,96440.31
2019-05-18T03:10:32.071Z,96441.96
2019-05-18T03:13:02.160Z,96442.96
2019-05-18T03:15:31.945Z,96433.95
2019-05-18T03:18:01.773Z,96433.95
2019-05-18T03:20:32.150Z,96436.34
2019-05-18T03:23:02.036Z,96436.34
2019-05-18T03:25:31.616Z,96428.95
2019-05-18T03:28:02.069Z,96426.30
2019-05-18T03:30:31.794Z,96423.28
2019-05-18T03:33:01.532Z,96426.51
2019-05-18T03:35:31.578Z,96425.66
2019-05-18T03:38:01.226Z,96433.20
2019-05-18T03:40:30.978Z,96433.20
2019-05-18T03:43:01.274Z,96433.55
2019-05-18T03:45:31.419Z,96432.55
2019-05-18T03:48:01.502Z,96434.22
2019-05-18T03:50:31.260Z,96434.22
2019-05-18T03:53:00.937Z,96430.05
2019-05-18T03:55:31.603Z,96430.05
2019-05-18T03:58:01.976Z,96433.73
2019-05-18T04:00:32.018Z,96432.07
2019-05-18T04:03:01.837Z,96432.07
2019-05-18T04:05:32.136Z,96438.45
2019-05-18T04:08:01.955Z,96433.07
2019-05-18T04:10:31.637Z,96434.59
2019-05-18T04:13:01.321Z,96434.59
2019-05-18T04:15:31.135Z,96440.66
2019-05-18T04:18:01.048Z,96432.97
2019-05-18T04:20:30.683Z,96436.16
2019-05-18T04:23:01.012Z,96436.16
2019-05-18T04:25:31.391Z,96442.71
2019-05-18T04:28:01.253Z,96441.87
2019-05-18T04:30:31.221Z,96440.86
2019-05-18T04:33:01.035Z,96436.99
2019-05-18T04:35:30.704Z,96444.04
2019-05-18T04:38:00.484Z,96436.52
2019-05-18T04:40:30.371Z,96442.39
2019-05-18T04:43:00.268Z,96443.90
2019-05-18T04:45:30.409Z,96442.03
2019-05-18T04:48:01.088Z,96444.33
2019-05-18T04:50:30.980Z,96444.33
2019-05-18T04:53:00.705Z,96444.16
2019-05-18T04:55:30.873Z,96434.34
2019-05-18T04:58:00.605Z,96435.34
2019-05-18T05:00:31.734Z,96435.34
2019-05-18T05:03:01.818Z,96439.01
2019-05-18T05:05:31.612Z,96443.38
2019-05-18T05:08:01.379Z,96443.38
2019-05-18T05:10:32.595Z,96447.58
2019-05-18T05:13:02.211Z,96447.58
2019-05-18T05:15:32.690Z,96444.77
2019-05-18T05:18:02.520Z,96444.77
2019-05-18T05:20:32.398Z,96446.61
2019-05-18T05:23:02.666Z,96446.61
2019-05-18T05:25:32.831Z,96445.61
2019-05-18T05:28:02.759Z,96445.61
2019-05-18T05:30:33.123Z,96445.61
2019-05-18T05:33:04.401Z,96445.61
2019-05-18T05:35:37.487Z,96436.86
2019-05-18T05:38:06.465Z,96430.09
2019-05-18T05:40:37.128Z,96430.09
2019-05-18T05:43:07.027Z,96427.23
2019-05-18T05:45:36.817Z,96427.23
2019-05-18T05:48:06.660Z,96436.48
2019-05-18T05:50:36.960Z,96436.48
2019-05-18T05:53:06.723Z,96435.34
2019-05-18T05:55:36.280Z,96435.34
2019-05-18T05:58:06.687Z,96432.70
2019-05-18T06:00:36.430Z,96438.15
2019-05-18T06:03:06.087Z,96431.33
2019-05-18T06:05:36.046Z,96439.41
2019-05-18T06:08:06.244Z,96438.73
2019-05-18T06:10:36.206Z,96438.73
2019-05-18T06:13:07.577Z,96441.08
2019-05-18T06:15:41.592Z,96435.83
2019-05-18T06:18:11.493Z,96443.50
2019-05-18T06:20:51.000Z,96446.62
2019-05-18T06:23:13.140Z,96436.42
2019-05-18T06:25:42.766Z,96438.94
2019-05-18T06:28:12.513Z,96438.94
2019-05-18T06:30:42.647Z,96448.55
2019-05-18T06:33:12.423Z,96446.88
2019-05-18T06:35:42.175Z,96436.30
2019-05-18T06:38:11.738Z,96436.30
2019-05-18T06:40:41.659Z,96437.77
2019-05-18T06:43:11.300Z,96440.16
2019-05-18T06:45:41.676Z,96442.20
2019-05-18T06:48:13.863Z,96444.34
2019-05-18T06:50:43.601Z,96447.69
2019-05-18T06:53:13.354Z,96447.69
2019-05-18T06:55:43.193Z,96454.23
2019-05-18T06:58:13.505Z,96452.52
2019-05-18T07:00:43.363Z,96456.70
2019-05-18T07:03:13.070Z,96453.72
2019-05-18T07:05:43.218Z,96453.48
2019-05-18T07:08:13.088Z,96453.48
2019-05-18T07:10:42.604Z,96458.97
2019-05-18T07:13:12.326Z,96458.97
2019-05-18T07:15:43.851Z,96464.06
2019-05-18T07:18:13.574Z,96455.50
2019-05-18T07:20:43.248Z,96459.36
2019-05-18T07:23:13.076Z,96461.74
2019-05-18T07:25:44.440Z,96460.17
2019-05-18T07:28:14.075Z,96461.50
2019-05-18T07:30:43.663Z,96472.17
2019-05-18T07:33:13.263Z,96465.92
2019-05-18T07:35:42.921Z,96459.00
2019-05-18T07:38:13.102Z,96459.00
2019-05-18T07:40:46.680Z,96459.39
2019-05-18T07:43:16.228Z,96453.42
2019-05-18T07:45:45.732Z,96458.44
2019-05-18T07:48:15.569Z,96458.44
2019-05-18T07:50:45.315Z,96456.64
2019-05-18T07:53:15.427Z,96456.64
2019-05-18T07:55:46.155Z,96462.54
2019-05-18T07:58:15.823Z,96462.54
2019-05-18T08:00:45.395Z,96459.49
2019-05-18T08:03:15.273Z,96461.47
2019-05-18T08:05:44.837Z,96461.47
2019-05-18T08:08:14.395Z,96460.95
2019-05-18T08:10:44.484Z,96463.07
2019-05-18T08:13:14.273Z,96462.67
2019-05-18T08:15:44.323Z,96463.94
2019-05-18T08:18:14.481Z,96463.14
2019-05-18T08:20:44.142Z,96458.13
2019-05-18T08:23:13.927Z,96458.13
2019-05-18T08:25:44.590Z,96458.87
2019-05-18T08:28:14.622Z,96463.66
2019-05-18T08:30:47.410Z,96465.14
2019-05-18T08:33:17.238Z,96465.14
2019-05-18T08:35:46.785Z,96463.02
2019-05-18T08:38:16.521Z,96464.23
2019-05-18T08:40:46.387Z,96469.56
2019-05-18T08:43:19.298Z,96471.44
2019-05-18T08:45:48.770Z,96474.63
2019-05-18T08:48:18.811Z,96472.22
2019-05-18T08:50:48.800Z,96471.89
2019-05-18T08:53:19.034Z,96470.53
2019-05-18T08:55:49.626Z,96469.39
2019-05-18T08:58:19.370Z,96471.27
2019-05-18T09:00:49.189Z,96470.86
2019-05-18T09:03:22.086Z,96468.76
2019-05-18T09:05:51.817Z,96463.96
2019-05-18T09:08:21.434Z,96462.18
2019-05-18T09:10:51.177Z,96464.44
2019-05-18T09:13:20.683Z,96461.22
2019-05-18T09:15:50.296Z,96464.84
2019-05-18T09:18:19.983Z,96463.28
2019-05-18T09:20:50.384Z,96469.84
2019-05-18T09:23:22.132Z,96469.00
2019-05-18T09:25:51.697Z,96469.00
2019-05-18T09:28:21.186Z,96470.59
2019-05-18T09:30:50.940Z,96466.95
2019-05-18T09:33:20.711Z,96466.95
2019-05-18T09:35:50.218Z,96468.19
2019-05-18T09:38:19.826Z,96474.28
2019-05-18T09:40:49.404Z,96465.89
2019-05-18T09:43:19.666Z,96472.01
2019-05-18T09:45:49.261Z,96476.13
2019-05-18T09:48:18.867Z,96475.13
2019-05-18T09:50:48.700Z,96475.13
2019-05-18T09:53:18.989Z,96477.19
2019-05-18T09:55:49.654Z,96480.45
2019-05-18T09:58:20.663Z,96480.45
2019-05-18T10:00:50.695Z,96475.11
2019-05-18T10:03:21.316Z,96471.17
2019-05-18T10:05:51.478Z,96477.16
2019-05-18T10:08:24.740Z,96478.70
2019-05-18T10:10:54.397Z,96469.88
2019-05-18T10:13:24.267Z,96474.51
2019-05-18T10:15:54.289Z,96474.51
2019-05-18T10:18:24.051Z,96476.57
2019-05-18T10:20:54.116Z,96469.97
2019-05-18T10:23:23.825Z,96469.23
2019-05-18T10:25:53.570Z,96471.66
2019-05-18T10:28:23.322Z,96466.64
2019-05-18T10:30:56.227Z,96466.59
2019-05-18T10:33:26.173Z,96466.81
2019-05-18T10:35:55.734Z,96466.81
2019-05-18T10:38:25.349Z,96465.28
2019-05-18T10:43:32.152Z,96461.16
2019-05-18T10:46:02.164Z,96457.17
2019-05-18T10:48:32.138Z,96457.17
2019-05-18T10:51:05.603Z,96449.89
2019-05-18T10:53:33.337Z,96447.89
2019-05-18T10:56:03.238Z,96453.45
2019-05-18T10:58:33.062Z,96453.45
2019-05-18T11:01:02.775Z,96448.41
2019-05-18T11:03:34.322Z,96445.83
2019-05-18T11:06:04.278Z,96438.95
2019-05-18T11:08:34.524Z,96438.95
2019-05-18T11:11:04.278Z,96441.28
2019-05-18T11:13:35.145Z,96432.37
2019-05-18T11:16:05.190Z,96432.18
2019-05-18T11:18:34.710Z,96434.80
2019-05-18T11:21:05.108Z,96434.80
2019-05-18T11:23:43.291Z,96444.16
2019-05-18T11:26:09.797Z,96437.52
2019-05-18T11:28:39.477Z,96432.08
2019-05-18T11:31:09.220Z,96434.78
2019-05-18T11:33:38.783Z,96431.66
2019-05-18T11:36:08.915Z,96435.48
2019-05-18T11:38:39.235Z,96435.48
2019-05-18T11:41:08.795Z,96437.34
2019-05-18T11:43:38.422Z,96439.81
2019-05-18T11:46:08.397Z,96439.81
2019-05-18T11:48:37.942Z,96440.59
2019-05-18T11:51:07.910Z,96432.75
2019-05-18T11:53:37.760Z,96432.75
2019-05-18T11:56:08.031Z,96432.04
2019-05-18T11:58:37.907Z,96435.80
2019-05-18T12:01:09.274Z,96433.59
2019-05-18T12:03:39.676Z,96430.03
2019-05-18T12:06:12.708Z,96430.03
2019-05-18T12:08:42.322Z,96428.58
2019-05-18T12:11:12.760Z,96434.70
2019-05-18T12:13:42.314Z,96423.25
2019-05-18T12:16:12.071Z,96428.82
2019-05-18T12:18:47.480Z,96423.33
2019-05-18T12:21:16.936Z,96425.81
2019-05-18T12:23:46.542Z,96425.81
2019-05-18T12:26:19.143Z,96423.84
2019-05-18T12:28:49.035Z,96417.32
2019-05-18T12:31:19.522Z,96420.98
2019-05-18T12:33:49.231Z,96424.67
2019-05-18T12:36:23.734Z,96427.98
2019-05-18T12:38:57.003Z,96428.19
2019-05-18T12:41:31.418Z,96424.41
2019-05-18T12:44:34.378Z,96431.23
2019-05-18T12:47:02.660Z,96431.23
2019-05-18T12:49:32.486Z,96415.87
2019-05-18T12:52:02.592Z,96416.20
2019-05-18T12:54:46.146Z,96422.52
2019-05-18T12:57:07.236Z,96426.36
2019-05-18T12:59:37.001Z,96426.36
2019-05-18T13:02:09.912Z,96425.99
2019-05-18T13:04:41.894Z,96428.86
2019-05-18T13:07:12.137Z,96433.91
2019-05-18T13:09:43.632Z,96427.53
2019-05-18T13:12:16.293Z,96427.53
2019-05-18T13:14:46.138Z,96427.44
2019-05-18T13:17:16.063Z,96430.11
2019-05-18T13:19:49.212Z,96435.47
2019-05-18T13:22:19.772Z,96435.47
2019-05-18T13:24:52.125Z,96428.75
2019-05-18T13:27:37.966Z,96427.42
2019-05-18T13:29:54.694Z,96427.42
2019-05-18T13:32:27.406Z,96429.45
2019-05-18T13:34:58.104Z,96429.45
2019-05-18T13:37:32.548Z,96433.48
2019-05-18T13:40:06.753Z,96426.37
2019-05-18T13:42:37.777Z,96429.88
2019-05-18T13:45:07.827Z,96431.88
2019-05-18T13:47:40.111Z,96426.84
2019-05-18T13:50:10.154Z,96423.72
2019-05-18T13:52:40.463Z,96425.41
2019-05-18T13:55:10.302Z,96419.87
2019-05-18T13:57:39.940Z,96419.87
2019-05-18T14:00:09.800Z,96419.56
2019-05-18T14:02:39.325Z,96423.71
2019-05-18T14:05:09.300Z,96429.70
2019-05-18T14:07:38.898Z,96429.70
2019-05-18T14:10:12.266Z,96432.03
2019-05-18T14:12:40.811Z,96432.03
2019-05-18T14:15:11.932Z,96433.30
2019-05-18T14:17:41.550Z,96433.86
2019-05-18T14:20:11.191Z,96434.22
2019-05-18T14:22:40.712Z,96431.59
2019-05-18T14:25:19.283Z,96428.27
2019-05-18T14:27:42.019Z,96428.27
2019-05-18T14:30:11.699Z,96435.03
2019-05-18T14:32:42.804Z,96428.11
2019-05-18T14:35:12.634Z,96431.00
2019-05-18T14:37:42.761Z,96435.38
2019-05-18T14:40:14.633Z,96436.34
2019-05-18T14:42:44.269Z,96436.34
2019-05-18T14:45:13.932Z,96438.72
2019-05-18T14:47:43.413Z,96433.34
2019-05-18T14:50:13.232Z,96430.23
2019-05-18T14:52:43.142Z,96430.23
2019-05-18T14:55:16.128Z,96426.91
2019-05-18T14:57:48.047Z,96426.91
2019-05-18T15:00:17.860Z,96428.19
2019-05-18T15:02:47.753Z,96434.02
2019-05-18T15:05:17.371Z,96434.02
2019-05-18T15:07:58.699Z,96437.36
2019-05-18T15:10:33.687Z,96425.75
2019-05-18T15:13:05.127Z,96428.58
2019-05-18T15:15:39.923Z,96424.56
2019-05-18T15:18:09.562Z,96424.56
2019-05-18T15:20:45.411Z,96420.48
2019-05-18T15:23:15.700Z,96413.56
2019-05-18T15:25:50.860Z,96413.56
2019-05-18T15:28:16.581Z,96414.73
2019-05-18T15:30:46.214Z,96414.73
2019-05-18T15:33:15.909Z,96416.08
2019-05-18T15:35:45.877Z,96414.30
2019-05-18T15:38:18.700Z,96419.57
2019-05-18T15:40:48.188Z,96418.32
2019-05-18T15:43:18.056Z,96418.32
2019-05-18T15:45:47.894Z,96420.10
2019-05-18T15:48:17.567Z,96418.39
2019-05-18T15:50:50.247Z,96420.78
2019-05-18T15:53:19.940Z,96420.78
2019-05-18T15:56:04.455Z,96425.53
2019-05-18T15:58:21.624Z,96427.09
2019-05-18T16:00:54.351Z,96429.55
2019-05-18T16:03:23.915Z,96429.55
2019-05-18T16:05:54.293Z,96421.92
2019-05-18T16:08:26.366Z,96421.92
2019-05-18T16:10:57.260Z,96417.98
2019-05-18T16:13:27.473Z,96428.80
2019-05-18T16:15:57.456Z,96429.69
2019-05-18T16:18:27.254Z,96429.30
2019-05-18T16:20:56.987Z,96432.00
2019-05-18T16:23:26.490Z,96431.75
2019-05-18T16:25:56.666Z,96427.73
2019-05-18T16:28:26.209Z,96432.75
2019-05-18T16:30:56.081Z,96432.75
2019-05-18T16:33:26.026Z,96442.89
2019-05-18T16:35:59.055Z,96443.14
2019-05-18T16:38:28.818Z,96435.94
2019-05-18T16:41:03.364Z,96435.94
2019-05-18T16:43:32.763Z,96441.06
2019-05-18T16:46:02.658Z,96434.84
2019-05-18T16:48:39.380Z,96434.84
2019-05-18T16:51:08.804Z,96430.92
2019-05-18T16:53:38.948Z,96430.92
2019-05-18T16:56:08.863Z,96432.19
2019-05-18T16:58:38.952Z,96428.07
2019-05-18T17:01:12.282Z,96428.07
2019-05-18T17:03:44.833Z,96421.05
2019-05-18T17:06:16.405Z,96419.37
2019-05-18T17:08:45.922Z,96417.13
2019-05-18T17:11:15.432Z,96418.22
2019-05-18T17:13:45.513Z,96418.31
2019-05-18T17:16:16.891Z,96423.86
2019-05-18T17:18:49.280Z,96427.80
2019-05-18T17:21:19.052Z,96425.65
2019-05-18T17:23:48.782Z,96425.65
2019-05-18T17:26:18.364Z,96427.74
2019-05-18T17:28:48.190Z,96431.30
2019-05-18T17:31:17.746Z,96431.30
2019-05-18T17:33:47.260Z,96436.22
2019-05-18T17:36:19.638Z,96438.05
2019-05-18T17:38:49.295Z,96438.05
2019-05-18T17:41:19.256Z,96433.73
2019-05-18T17:43:51.321Z,96433.73
2019-05-18T17:46:24.265Z,96432.70
2019-05-18T17:48:54.368Z,96439.59
2019-05-18T17:51:24.752Z,96435.41
2019-05-18T17:53:54.704Z,96429.95
2019-05-18T17:56:24.370Z,96435.19
2019-05-18T17:58:54.004Z,96439.51
2019-05-18T18:01:23.510Z,96439.55
2019-05-18T18:03:54.099Z,96439.55
2019-05-18T18:06:25.384Z,96438.67
2019-05-18T18:08:55.139Z,96441.87
2019-05-18T18:11:26.731Z,96437.55
2019-05-18T18:13:56.496Z,96445.45
2019-05-18T18:16:27.150Z,96438.31
2019-05-18T18:18:57.004Z,96438.31
2019-05-18T18:21:28.791Z,96444.28
2019-05-18T18:23:58.250Z,96449.83
2019-05-18T18:26:29.906Z,96449.83
2019-05-18T18:29:04.218Z,96450.16
2019-05-18T18:31:34.283Z,96451.97
2019-05-18T18:34:07.503Z,96451.97
2019-05-18T18:36:40.176Z,96453.55
2019-05-18T18:39:13.162Z,96451.97
2019-05-18T18:41:43.302Z,96453.01
2019-05-18T18:44:16.074Z,96456.78
2019-05-18T18:46:46.256Z,96456.78
2019-05-18T18:49:16.414Z,96455.83
2019-05-18T18:51:46.445Z,96461.83
2019-05-18T18:54:19.294Z,96456.75
2019-05-18T18:56:48.874Z,96456.75
2019-05-18T18:59:19.094Z,96460.04
2019-05-18T19:01:48.798Z,96457.92
2019-05-18T19:04:18.431Z,96459.83
2019-05-18T19:06:48.028Z,96464.19
2019-05-18T19:09:21.061Z,96458.44
2019-05-18T19:11:51.148Z,96467.28
2019-05-18T19:14:25.747Z,96477.97
2019-05-18T19:16:55.466Z,96477.97
2019-05-18T19:19:30.250Z,96485.00
2019-05-18T19:22:00.006Z,96497.05
2019-05-18T19:24:32.162Z,96511.62
2019-05-18T19:27:02.099Z,96511.17
2019-05-18T19:29:32.473Z,96520.55
2019-05-18T19:32:04.257Z,96520.55
2019-05-18T19:34:34.222Z,96525.31
2019-05-18T19:37:04.231Z,96518.67
2019-05-18T19:39:34.146Z,96522.81
2019-05-18T19:42:03.690Z,96528.62
2019-05-18T19:44:36.198Z,96528.62
2019-05-18T19:47:06.011Z,96524.75
2019-05-18T19:49:36.034Z,96529.07
2019-05-18T19:52:05.650Z,96529.59
2019-05-18T19:54:36.166Z,96529.59
2019-05-18T19:57:06.535Z,96525.30
2019-05-18T19:59:36.097Z,96525.77
2019-05-18T20:02:05.996Z,96524.47
2019-05-18T20:04:35.735Z,96525.48
2019-05-18T20:07:05.379Z,96525.48
2019-05-18T20:09:35.384Z,96529.89
2019-05-18T20:12:05.314Z,96532.77
2019-05-18T20:14:34.765Z,96535.92
2019-05-18T20:17:04.467Z,96531.92
2019-05-18T20:19:39.144Z,96531.92
2019-05-18T20:22:06.413Z,96534.95
2019-05-18T20:24:36.749Z,96545.38
2019-05-18T20:27:06.823Z,96540.84
2019-05-18T20:29:36.453Z,96540.84
2019-05-18T20:32:06.361Z,96536.75
2019-05-18T20:34:36.652Z,96537.94
2019-05-18T20:37:06.249Z,96535.42
2019-05-18T20:39:36.251Z,96535.42
2019-05-18T20:42:06.597Z,96542.52
2019-05-18T20:44:39.808Z,96540.54
2019-05-18T20:47:09.420Z,96529.50
2019-05-18T20:49:39.357Z,96527.17
2019-05-18T20:52:09.273Z,96527.92
2019-05-18T20:54:40.445Z,96527.92
2019-05-18T20:57:10.470Z,96524.97
2019-05-18T20:59:40.365Z,96519.98
2019-05-18T21:02:24.680Z,96512.22
2019-05-18T21:04:54.353Z,96512.22
2019-05-18T21:07:26.114Z,96501.38
2019-05-18T21:09:56.307Z,96501.38
2019-05-18T21:12:28.952Z,96503.94
2019-05-18T21:15:00.441Z,96506.23
2019-05-18T21:17:33.373Z,96509.20
2019-05-18T21:20:03.459Z,96509.20
2019-05-18T21:22:33.762Z,96509.39
2019-05-18T21:25:03.690Z,96514.09
2019-05-18T21:27:33.732Z,96526.66
2019-05-18T21:30:04.037Z,96521.25
2019-05-18T21:32:34.018Z,96521.25
2019-05-18T21:35:06.151Z,96528.84
2019-05-18T21:37:35.971Z,96534.56
2019-05-18T21:40:06.835Z,96540.91
2019-05-18T21:42:36.744Z,96538.92
2019-05-18T21:45:07.259Z,96539.80
2019-05-18T21:47:36.950Z,96533.20
2019-05-18T21:50:07.746Z,96534.48
2019-05-18T21:52:37.865Z,96534.63
2019-05-18T21:55:07.981Z,96529.62
2019-05-18T21:57:37.767Z,96529.12
2019-05-18T22:00:08.138Z,96529.01
2019-05-18T22:02:37.957Z,96530.25
2019-05-18T22:05:11.724Z,96530.69
2019-05-18T22:07:41.552Z,96525.69
2019-05-18T22:10:24.951Z,96530.03
2019-05-18T22:12:43.464Z,96527.26
2019-05-18T22:15:13.109Z,96520.07
2019-05-18T22:18:00.516Z,96516.10
2019-05-18T22:20:30.198Z,96512.95
2019-05-18T22:23:01.269Z,96505.22
2019-05-18T22:25:31.541Z,96505.22
2019-05-18T22:28:01.474Z,96510.89
2019-05-18T22:30:31.335Z,96514.83
2019-05-18T22:33:01.404Z,96514.83
2019-05-18T22:35:33.335Z,96505.44
2019-05-18T22:38:03.181Z,96509.00
2019-05-18T22:40:35.934Z,96499.27
2019-05-18T22:43:07.424Z,96506.88
2019-05-18T22:45:37.303Z,96512.13
2019-05-18T22:48:07.093Z,96511.19
2019-05-18T22:50:38.101Z,96511.19
2019-05-18T22:53:07.857Z,96511.27
2019-05-18T22:55:38.369Z,96511.80
2019-05-18T22:58:08.051Z,96502.86
2019-05-18T23:00:38.264Z,96502.86
2019-05-18T23:03:08.073Z,96503.44
2019-05-18T23:05:39.021Z,96502.19
2019-05-18T23:08:08.580Z,96497.29
2019-05-18T23:10:38.186Z,96497.29
2019-05-18T23:13:08.090Z,96497.47
2019-05-18T23:15:38.221Z,96494.69
2019-05-18T23:18:08.102Z,96494.01
2019-05-18T23:20:37.893Z,96494.01
2019-05-18T23:23:07.711Z,96493.70
2019-05-18T23:25:37.937Z,96487.08
2019-05-18T23:28:08.140Z,96487.55
2019-05-18T23:30:38.377Z,96484.90
2019-05-18T23:33:08.100Z,96484.90
2019-05-18T23:35:38.507Z,96477.44
2019-05-18T23:38:08.408Z,96477.44
2019-05-18T23:40:38.902Z,96470.38
2019-05-18T23:43:08.826Z,96473.25
2019-05-18T23:45:38.519Z,96470.98
2019-05-18T23:48:08.667Z,96472.48
2019-05-18T23:50:38.539Z,96474.53
2019-05-18T23:53:08.764Z,96474.52
2019-05-18T23:55:38.673Z,96472.67
2019-05-18T23:58:08.443Z,96469.77
